createdAt,value
2022-09-04T00:03:48.997Z,0.67
2022-09-04T00:18:48.733Z,0.97
2022-09-04T00:33:48.446Z,0.63
2022-09-04T00:48:49.233Z,0.83
2022-09-04T01:03:49.126Z,1.29
2022-09-04T01:18:48.895Z,0.74
2022-09-04T01:33:48.809Z,0.9
2022-09-04T01:48:48.565Z,0.76
2022-09-04T02:03:48.441Z,1.15
2022-09-04T02:18:49.082Z,1.18
2022-09-04T02:33:48.877Z,1.12
2022-09-04T02:48:48.735Z,0.81
2022-09-04T03:03:48.580Z,0.88
2022-09-04T03:18:48.541Z,1.4
2022-09-04T03:33:48.446Z,1.17
2022-09-04T03:48:48.469Z,0.5
2022-09-04T04:03:48.576Z,0.13
2022-09-04T04:18:48.639Z,0.09
2022-09-04T04:33:49.141Z,0.54
2022-09-04T04:48:48.941Z,0.51
2022-09-04T05:03:49.040Z,5.46
2022-09-04T05:18:49.189Z,2.79
2022-09-04T05:33:48.569Z,26.34
2022-09-04T05:48:49.127Z,14.66
2022-09-04T06:03:54.126Z,5.73
2022-09-04T06:18:49.162Z,4.9
2022-09-04T06:33:49.329Z,16.63
2022-09-04T06:48:48.610Z,8.61
2022-09-04T07:03:49.207Z,4.68
2022-09-04T07:18:49.206Z,5.38
2022-09-04T07:33:49.342Z,2.34
2022-09-04T07:48:49.152Z,3.12
2022-09-04T08:03:53.688Z,3.14
2022-09-04T08:18:48.755Z,3.16
2022-09-04T08:33:48.566Z,3.07
2022-09-04T08:48:49.093Z,2.8
2022-09-04T09:03:48.803Z,3.33
2022-09-04T09:18:49.206Z,3.44
2022-09-04T09:33:48.718Z,3.18
2022-09-04T09:48:48.755Z,3.27
2022-09-04T10:03:48.952Z,3.15
2022-09-04T10:18:48.639Z,3.43
2022-09-04T10:33:49.228Z,3.46
2022-09-04T10:48:49.007Z,2.96
2022-09-04T11:03:48.813Z,2.65
2022-09-04T11:18:48.638Z,3.53
2022-09-04T11:33:49.211Z,3.45
2022-09-04T11:48:48.855Z,2.55
2022-09-04T12:03:48.940Z,2.56
2022-09-04T12:18:49.229Z,2.87
2022-09-04T12:33:49.013Z,3.09
2022-09-04T12:48:48.684Z,2.76
2022-09-04T13:03:49.379Z,2.8
2022-09-04T13:18:49.057Z,3.47
2022-09-04T13:33:49.420Z,3.84
2022-09-04T13:48:49.005Z,3.32
2022-09-04T14:03:49.102Z,3.54
2022-09-04T14:18:48.997Z,3.24
2022-09-04T14:33:49.038Z,3.53
2022-09-04T14:48:49.039Z,3.11
2022-09-04T15:03:49.110Z,3.28
2022-09-04T15:18:49.097Z,3.75
2022-09-04T15:33:49.326Z,3.24
2022-09-04T15:48:48.769Z,3.69
2022-09-04T16:03:48.859Z,4.05
2022-09-04T16:18:49.902Z,3.77
2022-09-04T16:33:49.192Z,2.99
2022-09-04T16:48:49.259Z,3.69
2022-09-04T17:03:48.915Z,3.52
2022-09-04T17:18:49.302Z,3.25
2022-09-04T17:36:09.356Z,5.05
2022-09-04T17:48:48.714Z,4.09
2022-09-04T18:03:57.531Z,8.55
2022-09-04T18:18:48.941Z,10.83
2022-09-04T18:37:14.672Z,7.39
2022-09-04T18:50:42.025Z,4.23
2022-09-04T19:03:48.971Z,4.03
2022-09-04T19:18:49.300Z,6.09
2022-09-04T19:33:48.835Z,6.41
2022-09-04T19:48:51.104Z,6.82
2022-09-04T20:03:49.331Z,5.54
2022-09-04T20:18:48.875Z,5.85
2022-09-04T20:33:49.251Z,6.9
2022-09-04T20:53:00.948Z,12.38
2022-09-04T21:03:52.249Z,20.67
2022-09-04T21:19:11.322Z,20.22
2022-09-04T21:33:49.109Z,7.98
2022-09-04T21:48:49.035Z,9.42
2022-09-04T22:03:48.976Z,8.2
2022-09-04T22:18:48.615Z,5.76
2022-09-04T22:34:14.614Z,5.3
2022-09-04T22:49:11.673Z,4.59
2022-09-04T23:03:49.417Z,4.87
2022-09-04T23:20:34.435Z,4.82
2022-09-04T23:33:49.133Z,5.17
2022-09-04T23:48:49.514Z,5.44
